Art, Indiana
Current Conditions -  °F | °C
As of 12:53 AM on Sunday 21 Dec 2014 (Local Time) from KHUF Reporting Station
Haze Haze  
Wind Chill: 24°   Ceiling: Unl
Heat Index: 24°   Visibility: 6mi
Dew Point: 22°   Wind: 0mph
Humidity: 91%   Direction: NA
Pressure: 30.29"   Gusts: NA
Location:  39.5158°N, 87.1262°W
Report Text: KHUF 210553Z 00000KT 6SM BR CLR M04/M06 A3029 RMK AO2 SLP265 I1000 I6000 T10441056 10000 21044 55001
Loading
Personal Weather Stations






























Interactive Weather Map New forecast layout! Learn more

10-Day Weather Forecast

Advertisements
Track Severe Weather on mobile